createdAt,value
2022-08-25T00:01:34.400Z,11.73
2022-08-25T00:04:03.206Z,12.82
2022-08-25T00:06:30.481Z,11.70
2022-08-25T00:08:59.659Z,16.23
2022-08-25T00:11:28.942Z,12.43
2022-08-25T00:14:00.461Z,11.27
2022-08-25T00:16:28.775Z,11.85
2022-08-25T00:18:58.871Z,15.18
2022-08-25T00:23:52.827Z,13.57
2022-08-25T00:26:20.382Z,14.23
2022-08-25T00:28:47.828Z,14.48
2022-08-25T00:31:20.232Z,16.17
2022-08-25T00:33:48.755Z,15.60
2022-08-25T00:36:16.771Z,13.48
2022-08-25T00:38:45.727Z,12.23
2022-08-25T00:41:15.753Z,12.35
2022-08-25T00:43:42.392Z,13.93
2022-08-25T00:46:10.111Z,14.35
2022-08-25T00:48:38.883Z,12.63
2022-08-25T00:51:09.690Z,14.02
2022-08-25T00:53:36.414Z,13.20
2022-08-25T00:56:03.728Z,12.55
2022-08-25T00:58:34.286Z,13.00
2022-08-25T01:01:01.538Z,22.75
2022-08-25T01:03:35.793Z,15.40
2022-08-25T01:06:04.349Z,12.73
2022-08-25T01:08:32.647Z,15.73
2022-08-25T01:11:02.954Z,12.40
2022-08-25T01:13:35.226Z,13.60
2022-08-25T01:16:02.510Z,14.13
2022-08-25T01:18:42.143Z,13.55
2022-08-25T01:21:08.620Z,13.55
2022-08-25T01:23:35.102Z,14.18
2022-08-25T01:26:09.581Z,16.42
2022-08-25T01:28:37.849Z,13.60
2022-08-25T01:31:05.295Z,16.42
2022-08-25T01:33:50.707Z,13.60
2022-08-25T01:36:21.399Z,14.38
2022-08-25T01:38:47.849Z,15.27
2022-08-25T01:41:21.399Z,13.75
2022-08-25T01:43:48.121Z,13.65
2022-08-25T01:46:14.787Z,14.85
2022-08-25T01:48:41.264Z,14.43
2022-08-25T01:51:07.714Z,14.45
2022-08-25T01:53:34.451Z,14.32
2022-08-25T01:56:10.127Z,19.20
2022-08-25T01:58:39.776Z,17.50
2022-08-25T02:01:09.984Z,14.60
2022-08-25T02:03:41.193Z,17.98
2022-08-25T02:06:10.877Z,14.10
2022-08-25T02:08:38.228Z,16.23
2022-08-25T02:11:04.906Z,15.02
2022-08-25T02:13:32.475Z,15.60
2022-08-25T02:16:01.135Z,15.77
2022-08-25T02:18:28.031Z,17.42
2022-08-25T02:20:54.527Z,15.23
2022-08-25T02:23:21.117Z,19.30
2022-08-25T02:25:47.703Z,15.77
2022-08-25T02:28:14.586Z,17.90
2022-08-25T02:30:43.214Z,16.75
2022-08-25T02:33:10.170Z,18.15
2022-08-25T02:35:36.771Z,16.05
2022-08-25T02:38:04.224Z,15.73
2022-08-25T02:40:30.921Z,19.10
2022-08-25T02:42:57.474Z,15.57
2022-08-25T02:45:23.976Z,14.75
2022-08-25T02:47:50.442Z,16.52
2022-08-25T02:50:16.940Z,16.05
2022-08-25T02:52:43.451Z,17.05
2022-08-25T02:55:14.053Z,16.15
2022-08-25T02:57:42.064Z,16.65
2022-08-25T03:00:09.997Z,19.55
2022-08-25T03:02:41.282Z,19.45
2022-08-25T03:05:09.291Z,17.08
2022-08-25T03:07:38.375Z,19.30
2022-08-25T03:10:15.205Z,16.85
2022-08-25T03:12:41.761Z,19.00
2022-08-25T03:15:13.511Z,17.48
2022-08-25T03:17:40.303Z,17.48
2022-08-25T03:20:08.010Z,17.70
2022-08-25T03:22:34.929Z,17.88
2022-08-25T03:25:24.002Z,17.98
2022-08-25T03:27:51.882Z,18.53
2022-08-25T03:30:18.810Z,24.77
2022-08-25T03:32:45.702Z,19.13
2022-08-25T03:35:12.663Z,19.40
2022-08-25T03:37:39.562Z,19.13
2022-08-25T03:40:09.367Z,19.60
2022-08-25T03:42:45.942Z,19.63
2022-08-25T03:45:16.210Z,19.27
2022-08-25T03:50:10.898Z,19.38
2022-08-25T03:52:41.814Z,20.88
2022-08-25T03:55:11.895Z,19.67
2022-08-25T03:57:38.516Z,20.08
2022-08-25T04:00:08.115Z,20.67
2022-08-25T04:02:34.677Z,20.33
2022-08-25T04:05:01.625Z,20.95
2022-08-25T04:07:28.978Z,21.33
2022-08-25T04:09:56.211Z,21.20
2022-08-25T04:12:23.171Z,21.77
2022-08-25T04:14:50.199Z,25.77
2022-08-25T04:17:17.610Z,21.95
2022-08-25T04:19:44.276Z,23.33
2022-08-25T04:22:11.159Z,21.15
2022-08-25T04:24:39.794Z,22.35
2022-08-25T04:27:06.204Z,23.05
2022-08-25T04:29:34.190Z,22.55
2022-08-25T04:32:01.099Z,24.42
2022-08-25T04:34:30.146Z,24.48
2022-08-25T04:36:59.023Z,24.05
2022-08-25T04:39:25.486Z,23.58
2022-08-25T04:41:51.968Z,23.00
2022-08-25T04:44:18.996Z,23.00
2022-08-25T04:46:45.522Z,23.30
2022-08-25T04:49:12.372Z,24.52
2022-08-25T04:51:41.676Z,24.48
2022-08-25T04:54:11.781Z,24.63
2022-08-25T04:56:41.256Z,24.08
2022-08-25T04:59:13.247Z,23.83
2022-08-25T05:01:42.687Z,25.08
2022-08-25T05:04:25.674Z,23.70
2022-08-25T05:06:55.263Z,24.70
2022-08-25T05:09:21.766Z,22.92
2022-08-25T05:11:48.720Z,23.27
2022-08-25T05:14:18.159Z,23.67
2022-08-25T05:16:45.193Z,23.83
2022-08-25T05:19:11.800Z,24.48
2022-08-25T05:21:38.327Z,25.23
2022-08-25T05:24:05.125Z,23.38
2022-08-25T05:26:33.200Z,23.75
2022-08-25T05:29:01.626Z,26.42
2022-08-25T05:31:28.963Z,22.85
2022-08-25T05:33:56.066Z,21.88
2022-08-25T05:36:23.775Z,24.83
2022-08-25T05:38:50.434Z,21.42
2022-08-25T05:41:19.606Z,29.08
2022-08-25T05:43:48.859Z,20.63
2022-08-25T05:46:18.789Z,22.07
2022-08-25T05:48:46.105Z,21.77
2022-08-25T05:51:14.884Z,19.05
2022-08-25T05:53:43.701Z,20.50
2022-08-25T05:56:10.874Z,20.55
2022-08-25T05:58:39.025Z,19.30
2022-08-25T06:01:24.124Z,18.95
2022-08-25T06:03:54.317Z,21.85
2022-08-25T06:06:22.939Z,21.70
2022-08-25T06:08:49.416Z,22.73
2022-08-25T06:11:16.457Z,18.30
2022-08-25T06:13:43.169Z,19.15
2022-08-25T06:16:09.759Z,24.10
2022-08-25T06:18:36.316Z,19.13
2022-08-25T06:21:11.246Z,18.38
2022-08-25T06:23:38.297Z,19.33
2022-08-25T06:26:05.215Z,26.95
2022-08-25T06:28:31.664Z,22.55
2022-08-25T06:31:02.153Z,26.05
2022-08-25T06:33:28.940Z,33.17
2022-08-25T06:35:57.142Z,29.90
2022-08-25T06:38:24.270Z,31.50
2022-08-25T06:40:55.072Z,30.20
2022-08-25T06:43:21.903Z,29.05
2022-08-25T06:45:48.960Z,33.42
2022-08-25T06:48:15.742Z,34.38
2022-08-25T06:50:43.260Z,29.70
2022-08-25T06:53:09.786Z,29.13
2022-08-25T06:55:36.814Z,30.70
2022-08-25T06:58:04.952Z,32.80
2022-08-25T07:00:32.838Z,25.65
2022-08-25T07:03:01.178Z,23.88
2022-08-25T07:05:40.934Z,26.85
2022-08-25T07:08:11.750Z,27.55
2022-08-25T07:10:38.385Z,27.92
2022-08-25T07:13:04.937Z,29.67
2022-08-25T07:15:31.406Z,25.42
2022-08-25T07:17:57.916Z,30.88
2022-08-25T07:22:52.962Z,27.38
2022-08-25T07:25:19.406Z,26.17
2022-08-25T07:27:46.041Z,24.55
2022-08-25T07:30:12.589Z,25.25
2022-08-25T07:32:42.074Z,24.70
2022-08-25T07:35:16.013Z,28.25
2022-08-25T07:37:50.579Z,24.35
2022-08-25T07:40:23.647Z,24.77
2022-08-25T07:42:52.338Z,21.00
2022-08-25T07:45:20.655Z,24.95
2022-08-25T07:47:47.623Z,22.42
2022-08-25T07:50:14.651Z,23.25
2022-08-25T07:52:41.616Z,24.15
2022-08-25T07:55:11.164Z,21.77
2022-08-25T07:57:40.047Z,21.88
2022-08-25T08:00:08.034Z,22.88
2022-08-25T08:02:38.601Z,21.73
2022-08-25T08:05:09.558Z,20.58
2022-08-25T08:10:42.186Z,19.45
2022-08-25T08:13:00.502Z,18.67
2022-08-25T08:15:29.940Z,20.23
2022-08-25T08:17:57.093Z,19.88
2022-08-25T08:20:24.535Z,18.55
2022-08-25T08:22:50.996Z,18.52
2022-08-25T08:25:18.746Z,20.20
2022-08-25T08:27:48.839Z,21.13
2022-08-25T08:30:15.504Z,19.73
2022-08-25T08:33:08.784Z,19.90
2022-08-25T08:35:28.575Z,20.02
2022-08-25T08:37:55.025Z,18.60
2022-08-25T08:40:22.000Z,18.27
2022-08-25T08:43:02.348Z,18.02
2022-08-25T08:45:56.795Z,17.52
2022-08-25T08:49:00.335Z,17.42
2022-08-25T08:51:35.882Z,16.95
2022-08-25T08:54:20.664Z,16.25
2022-08-25T08:57:03.836Z,15.05
2022-08-25T08:59:41.741Z,18.60
2022-08-25T09:02:16.518Z,17.65
2022-08-25T09:05:07.233Z,17.90
2022-08-25T09:07:44.904Z,17.70
2022-08-25T09:10:16.239Z,16.33
2022-08-25T09:13:26.132Z,17.33
2022-08-25T09:16:33.751Z,16.80
2022-08-25T09:19:31.334Z,16.55
2022-08-25T09:22:01.368Z,17.40
2022-08-25T09:24:51.482Z,16.88
2022-08-25T09:27:24.567Z,17.08
2022-08-25T09:30:05.594Z,15.38
2022-08-25T09:32:40.279Z,15.07
2022-08-25T09:35:09.988Z,16.13
2022-08-25T09:37:36.411Z,18.25
2022-08-25T09:40:03.836Z,17.15
2022-08-25T09:42:49.893Z,18.13
2022-08-25T09:45:17.132Z,17.02
2022-08-25T09:47:45.433Z,16.13
2022-08-25T09:50:20.029Z,17.65
2022-08-25T09:52:46.736Z,15.82
2022-08-25T09:55:28.188Z,16.88
2022-08-25T09:57:57.444Z,16.50
2022-08-25T10:00:33.848Z,17.17
2022-08-25T10:03:07.982Z,16.35
2022-08-25T10:05:41.526Z,17.80
2022-08-25T10:08:36.416Z,15.55
2022-08-25T10:11:08.937Z,15.25
2022-08-25T10:13:42.007Z,17.13
2022-08-25T10:16:36.031Z,15.77
2022-08-25T10:19:23.574Z,18.00
2022-08-25T10:22:06.306Z,13.20
2022-08-25T10:24:35.043Z,17.17
2022-08-25T10:27:06.390Z,18.85
2022-08-25T10:30:10.921Z,15.10
2022-08-25T10:32:57.614Z,15.63
2022-08-25T10:35:29.145Z,14.38
2022-08-25T10:38:07.492Z,13.00
2022-08-25T10:43:30.109Z,12.55
2022-08-25T10:46:36.576Z,15.05
2022-08-25T10:49:19.359Z,12.88
2022-08-25T10:51:46.236Z,14.02
2022-08-25T10:54:27.718Z,12.52
2022-08-25T10:57:36.213Z,12.93
2022-08-25T11:00:13.557Z,12.27
2022-08-25T11:02:55.491Z,13.00
2022-08-25T11:05:36.921Z,11.30
2022-08-25T11:08:36.060Z,11.93
2022-08-25T11:11:17.464Z,11.70
2022-08-25T11:14:00.294Z,12.85
2022-08-25T11:16:57.827Z,12.52
2022-08-25T11:19:32.815Z,10.48
2022-08-25T11:22:16.175Z,10.55
2022-08-25T11:24:51.732Z,12.20
2022-08-25T11:27:25.344Z,14.57
2022-08-25T11:30:14.149Z,9.70
2022-08-25T11:32:46.709Z,13.80
2022-08-25T11:35:16.979Z,9.63
2022-08-25T11:38:06.484Z,9.60
2022-08-25T11:40:33.087Z,12.00
2022-08-25T11:43:22.647Z,13.63
2022-08-25T11:46:00.922Z,10.18
2022-08-25T11:48:41.571Z,10.02
2022-08-25T11:51:11.801Z,18.48
2022-08-25T11:53:42.608Z,14.57
2022-08-25T11:56:31.874Z,15.43
2022-08-25T11:58:59.491Z,9.75
2022-08-25T12:01:32.699Z,10.18
2022-08-25T12:04:42.206Z,15.95
2022-08-25T12:07:21.995Z,14.07
2022-08-25T12:09:51.640Z,9.95
2022-08-25T12:12:44.145Z,9.10
2022-08-25T12:15:24.373Z,9.80
2022-08-25T12:18:13.168Z,11.73
2022-08-25T12:20:58.354Z,13.35
2022-08-25T12:24:02.901Z,12.10
2022-08-25T12:26:42.070Z,10.10
2022-08-25T12:29:26.658Z,11.45
2022-08-25T12:31:57.421Z,12.48
2022-08-25T12:34:46.454Z,14.20
2022-08-25T12:37:19.268Z,10.90
2022-08-25T12:39:49.885Z,11.35
2022-08-25T12:42:38.317Z,17.45
2022-08-25T12:45:32.489Z,15.02
2022-08-25T12:48:27.911Z,9.38
2022-08-25T12:51:02.676Z,10.88
2022-08-25T12:53:35.210Z,11.98
2022-08-25T12:56:28.086Z,12.48
2022-08-25T12:59:07.521Z,9.35
2022-08-25T13:01:59.234Z,10.27
2022-08-25T13:04:48.408Z,13.80
2022-08-25T13:07:43.113Z,11.98
2022-08-25T13:10:15.550Z,9.88
2022-08-25T13:13:05.106Z,11.90
2022-08-25T13:16:01.132Z,22.63
2022-08-25T13:18:27.494Z,13.40
2022-08-25T13:21:18.179Z,12.18
2022-08-25T13:23:50.743Z,12.68
2022-08-25T13:26:27.141Z,11.25
2022-08-25T13:29:20.841Z,9.52
2022-08-25T13:31:59.841Z,9.10
2022-08-25T13:34:34.480Z,9.93
2022-08-25T13:37:25.565Z,13.35
2022-08-25T13:40:26.906Z,16.75
2022-08-25T13:42:59.461Z,8.90
2022-08-25T13:45:31.780Z,8.90
2022-08-25T13:47:58.786Z,13.93
2022-08-25T13:50:31.246Z,11.32
2022-08-25T13:53:25.822Z,12.23
2022-08-25T13:55:56.921Z,14.00
2022-08-25T13:58:38.584Z,11.85
2022-08-25T14:01:47.727Z,16.48
2022-08-25T14:04:22.381Z,8.52
2022-08-25T14:06:49.513Z,9.60
2022-08-25T14:09:28.270Z,11.52
2022-08-25T14:11:58.536Z,8.82
2022-08-25T14:14:24.882Z,24.80
2022-08-25T14:16:58.782Z,10.90
2022-08-25T14:19:26.228Z,15.90
2022-08-25T14:21:56.638Z,9.02
2022-08-25T14:24:23.862Z,11.48
2022-08-25T14:26:54.106Z,10.07
2022-08-25T14:29:22.212Z,44.33
2022-08-25T14:31:49.865Z,21.02
2022-08-25T14:34:22.666Z,10.68
2022-08-25T14:36:50.670Z,9.45
2022-08-25T14:39:17.916Z,9.90
2022-08-25T14:41:48.730Z,11.15
2022-08-25T14:44:20.367Z,9.93
2022-08-25T14:46:54.097Z,9.88
2022-08-25T14:49:33.858Z,13.30
2022-08-25T14:52:24.431Z,9.65
2022-08-25T14:54:50.884Z,14.32
2022-08-25T14:57:17.377Z,9.93
2022-08-25T14:59:43.880Z,16.63
2022-08-25T15:02:14.184Z,10.70
2022-08-25T15:04:48.871Z,47.88
2022-08-25T15:07:34.813Z,11.93
2022-08-25T15:10:01.252Z,12.48
2022-08-25T15:12:46.493Z,10.63
2022-08-25T15:15:14.275Z,11.93
2022-08-25T15:17:41.943Z,11.52
2022-08-25T15:20:11.568Z,13.38
2022-08-25T15:22:37.969Z,9.98
2022-08-25T15:25:05.123Z,11.48
2022-08-25T15:27:31.970Z,12.82
2022-08-25T15:29:58.411Z,9.75
2022-08-25T15:32:24.972Z,9.65
2022-08-25T15:37:20.899Z,16.38
2022-08-25T15:39:48.904Z,13.40
2022-08-25T15:42:16.363Z,9.63
2022-08-25T15:44:53.173Z,10.18
2022-08-25T15:47:20.584Z,10.38
2022-08-25T15:49:47.187Z,9.35
2022-08-25T15:52:13.668Z,10.27
2022-08-25T15:54:40.201Z,9.32
2022-08-25T15:57:09.197Z,13.13
2022-08-25T15:59:40.208Z,9.77
2022-08-25T16:02:14.717Z,9.82
2022-08-25T16:04:41.844Z,17.02
2022-08-25T16:07:09.286Z,9.57
2022-08-25T16:09:41.014Z,9.10
2022-08-25T16:12:08.613Z,9.23
2022-08-25T16:14:36.638Z,11.18
2022-08-25T16:17:03.818Z,14.13
2022-08-25T16:19:31.349Z,11.27
2022-08-25T16:21:58.983Z,10.98
2022-08-25T16:24:26.953Z,9.73
2022-08-25T16:26:55.859Z,9.70
2022-08-25T16:29:23.191Z,10.43
2022-08-25T16:31:53.370Z,14.02
2022-08-25T16:34:22.304Z,10.00
2022-08-25T16:36:52.039Z,10.65
2022-08-25T16:39:19.899Z,10.40
2022-08-25T16:41:47.424Z,10.00
2022-08-25T16:44:14.138Z,11.35
2022-08-25T16:46:42.109Z,14.75
2022-08-25T16:49:13.532Z,12.43
2022-08-25T16:51:42.737Z,10.48
2022-08-25T16:54:29.566Z,11.25
2022-08-25T16:56:57.447Z,9.50
2022-08-25T16:59:24.871Z,12.95
2022-08-25T17:01:52.541Z,11.23
2022-08-25T17:04:19.557Z,15.35
2022-08-25T17:06:49.444Z,10.50
2022-08-25T17:09:23.006Z,12.90
2022-08-25T17:11:52.568Z,14.05
2022-08-25T17:14:21.137Z,13.25
2022-08-25T17:16:48.549Z,10.88
2022-08-25T17:21:50.914Z,11.88
2022-08-25T17:24:17.822Z,13.90
2022-08-25T17:26:47.244Z,11.18
2022-08-25T17:29:13.780Z,10.65
2022-08-25T17:31:40.483Z,10.75
2022-08-25T17:34:10.325Z,10.95
2022-08-25T17:36:36.969Z,10.63
2022-08-25T17:39:03.927Z,10.93
2022-08-25T17:41:30.400Z,11.10
2022-08-25T17:43:57.320Z,14.27
2022-08-25T17:46:24.073Z,12.55
2022-08-25T17:48:51.295Z,10.38
2022-08-25T17:51:18.469Z,12.35
2022-08-25T17:53:45.148Z,20.05
2022-08-25T17:56:16.639Z,13.38
2022-08-25T18:01:19.740Z,14.48
2022-08-25T18:03:49.316Z,12.45
2022-08-25T18:06:16.274Z,13.15
2022-08-25T18:08:43.635Z,13.45
2022-08-25T18:11:10.274Z,13.63
2022-08-25T18:13:38.577Z,13.13
2022-08-25T18:16:06.032Z,13.55
2022-08-25T18:18:36.078Z,15.75
2022-08-25T18:21:02.926Z,16.02
2022-08-25T18:23:29.599Z,14.82
2022-08-25T18:26:01.049Z,15.75
2022-08-25T18:28:28.724Z,15.77
2022-08-25T18:30:55.494Z,13.60
2022-08-25T18:33:23.130Z,16.13
2022-08-25T18:35:49.692Z,12.90
2022-08-25T18:38:34.593Z,14.65
2022-08-25T18:41:04.786Z,16.90
2022-08-25T18:43:34.029Z,17.92
2022-08-25T18:46:04.169Z,11.57
2022-08-25T18:48:32.094Z,14.52
2022-08-25T18:50:59.812Z,14.30
2022-08-25T18:53:36.713Z,15.73
2022-08-25T18:56:04.725Z,13.60
2022-08-25T18:58:31.490Z,13.63
2022-08-25T19:00:57.939Z,15.18
2022-08-25T19:03:24.554Z,13.10
2022-08-25T19:05:55.060Z,14.70
2022-08-25T19:08:24.823Z,17.13
2022-08-25T19:10:53.212Z,16.48
2022-08-25T19:13:22.828Z,14.32
2022-08-25T19:15:50.912Z,13.90
2022-08-25T19:18:18.568Z,18.90
2022-08-25T19:20:45.623Z,21.25
2022-08-25T19:23:13.108Z,19.38
2022-08-25T19:25:41.724Z,14.77
2022-08-25T19:28:11.908Z,16.45
2022-08-25T19:30:39.104Z,14.20
2022-08-25T19:33:16.831Z,17.42
2022-08-25T19:36:03.907Z,18.55
2022-08-25T19:38:33.921Z,15.63
2022-08-25T19:41:02.560Z,18.90
2022-08-25T19:43:35.987Z,16.92
2022-08-25T19:46:02.974Z,20.38
2022-08-25T19:48:29.557Z,18.85
2022-08-25T19:50:56.348Z,15.80
2022-08-25T19:53:22.878Z,16.55
2022-08-25T19:55:49.312Z,15.13
2022-08-25T19:58:15.963Z,18.83
2022-08-25T20:00:47.133Z,19.45
2022-08-25T20:03:17.366Z,18.95
2022-08-25T20:05:43.820Z,16.92
2022-08-25T20:08:10.281Z,14.57
2022-08-25T20:10:42.011Z,12.98
2022-08-25T20:13:09.567Z,17.63
2022-08-25T20:15:37.269Z,15.13
2022-08-25T20:18:06.259Z,16.80
2022-08-25T20:20:34.601Z,16.40
2022-08-25T20:23:20.907Z,19.13
2022-08-25T20:25:50.240Z,15.18
2022-08-25T20:28:18.904Z,16.60
2022-08-25T20:30:51.923Z,17.15
2022-08-25T20:33:20.186Z,13.23
2022-08-25T20:35:49.832Z,15.73
2022-08-25T20:38:19.921Z,15.60
2022-08-25T20:40:46.338Z,15.40
2022-08-25T20:43:15.316Z,15.90
2022-08-25T20:45:42.064Z,14.88
2022-08-25T20:48:09.554Z,19.58
2022-08-25T20:50:38.619Z,19.25
2022-08-25T20:53:05.759Z,13.43
2022-08-25T20:55:42.541Z,16.38
2022-08-25T20:58:10.364Z,14.68
2022-08-25T21:00:36.842Z,14.65
2022-08-25T21:03:03.322Z,15.45
2022-08-25T21:05:29.821Z,14.80
2022-08-25T21:07:56.227Z,22.40
2022-08-25T21:10:23.427Z,17.05
2022-08-25T21:12:53.344Z,14.73
2022-08-25T21:15:20.432Z,21.52
2022-08-25T21:17:54.531Z,15.65
2022-08-25T21:20:23.797Z,16.67
2022-08-25T21:22:51.168Z,15.40
2022-08-25T21:25:20.393Z,19.15
2022-08-25T21:27:48.059Z,17.02
2022-08-25T21:30:15.736Z,14.95
2022-08-25T21:32:52.963Z,15.48
2022-08-25T21:35:21.319Z,13.88
2022-08-25T21:37:53.483Z,17.83
2022-08-25T21:40:21.217Z,14.73
2022-08-25T21:42:48.806Z,16.33
2022-08-25T21:45:15.464Z,19.33
2022-08-25T21:47:42.583Z,20.73
2022-08-25T21:50:10.872Z,16.25
2022-08-25T21:52:37.386Z,15.85
2022-08-25T21:55:05.016Z,20.33
2022-08-25T21:57:32.000Z,13.45
2022-08-25T21:59:58.548Z,18.67
2022-08-25T22:02:25.385Z,19.60
2022-08-25T22:04:54.203Z,18.65
2022-08-25T22:07:22.396Z,14.70
2022-08-25T22:09:51.303Z,14.38
2022-08-25T22:12:21.402Z,18.05
2022-08-25T22:14:48.365Z,19.55
2022-08-25T22:17:16.634Z,25.38
2022-08-25T22:19:43.777Z,13.50
2022-08-25T22:22:10.206Z,22.20
2022-08-25T22:24:36.892Z,17.20
2022-08-25T22:27:04.430Z,19.40
2022-08-25T22:29:43.455Z,13.40
2022-08-25T22:32:09.930Z,19.10
2022-08-25T22:37:07.235Z,21.73
2022-08-25T22:39:34.893Z,14.55
2022-08-25T22:42:04.873Z,15.73
2022-08-25T22:44:31.696Z,21.05
2022-08-25T22:46:58.124Z,19.25
2022-08-25T22:49:28.314Z,17.40
2022-08-25T22:51:55.351Z,17.45
2022-08-25T22:54:22.894Z,15.82
2022-08-25T22:56:50.776Z,19.35
2022-08-25T22:59:17.548Z,20.30
2022-08-25T23:01:45.149Z,19.35
2022-08-25T23:04:12.137Z,18.85
2022-08-25T23:06:39.288Z,16.27
2022-08-25T23:09:08.179Z,18.10
2022-08-25T23:11:38.493Z,15.47
2022-08-25T23:14:09.411Z,21.67
2022-08-25T23:16:36.127Z,18.95
2022-08-25T23:19:02.610Z,17.13
2022-08-25T23:21:48.025Z,21.48
2022-08-25T23:24:29.917Z,17.73
2022-08-25T23:26:58.782Z,20.02
2022-08-25T23:29:25.438Z,27.10
2022-08-25T23:31:52.063Z,19.45
2022-08-25T23:34:21.721Z,17.83
2022-08-25T23:36:49.038Z,16.40
2022-08-25T23:39:15.743Z,20.50
2022-08-25T23:41:42.272Z,20.58
2022-08-25T23:44:11.756Z,16.17
2022-08-25T23:46:44.458Z,20.48
2022-08-25T23:49:11.040Z,20.48
2022-08-25T23:51:40.066Z,18.48
2022-08-25T23:54:10.831Z,17.95
2022-08-25T23:56:44.853Z,23.60
2022-08-25T23:59:24.670Z,16.45
